EGHH/BOH METAR and TAF weather

Enter ICAO airport designator
Station Type Date Time Source
EGHH METAR 2022/11/26 08:20 UTC NOAA

EGHH 260820Z 21007KT 9999 FEW020 12/08 Q1023


Station Type Date Time Source
EGHH Decoded METAR 2022/11/26 08:20 UTC NOAA

Bournemouth Airport, United Kingdom (EGHH) 50-47N 001-50W 0M
Nov 26, 2022 - 03:20 AM EST / 2022.11.26 0820 UTC
Wind: from the SSW (210 degrees) at 8 MPH (7 KT):0
Visibility: greater than 7 mile(s):0
Sky conditions: mostly clear
Temperature: 53 F (12 C)
Dew Point: 46 F (8 C)
Relative Humidity: 76%
Pressure (altimeter): 30.21 in. Hg (1023 hPa)
ob: EGHH 260820Z 21007KT 9999 FEW020 12/08 Q1023
cycle: 8

Station Type Date Time Source
EGHH TAF 2022/10/01 12:09 UTC NOAA

TAF EGHH 011104Z 0112/0124 27014KT 9999 FEW025 PROB30
TEMPO 0112/0116 28015G25KT 6000 SHRA BKN014

Example: see airport list